sensor_id;sensor_type;location;lat;lon;timestamp;temperature;humidity
20246;DHT22;10281;54.406;18.556;2023-07-24T00:01:45;16.30;99.90
20246;DHT22;10281;54.406;18.556;2023-07-24T00:04:12;16.40;99.90
20246;DHT22;10281;54.406;18.556;2023-07-24T00:06:38;16.30;99.90
20246;DHT22;10281;54.406;18.556;2023-07-24T00:09:05;16.40;99.90
20246;DHT22;10281;54.406;18.556;2023-07-24T00:11:31;16.30;99.90
20246;DHT22;10281;54.406;18.556;2023-07-24T00:13:58;16.40;99.90
20246;DHT22;10281;54.406;18.556;2023-07-24T00:16:24;16.40;99.90
20246;DHT22;10281;54.406;18.556;2023-07-24T00:18:51;16.40;99.90
20246;DHT22;10281;54.406;18.556;2023-07-24T00:21:18;16.40;99.90
20246;DHT22;10281;54.406;18.556;2023-07-24T00:23:44;16.30;99.90
20246;DHT22;10281;54.406;18.556;2023-07-24T00:26:11;16.20;99.90
20246;DHT22;10281;54.406;18.556;2023-07-24T00:28:38;16.30;99.90
20246;DHT22;10281;54.406;18.556;2023-07-24T00:31:04;16.30;99.90
20246;DHT22;10281;54.406;18.556;2023-07-24T00:33:31;16.30;99.90
20246;DHT22;10281;54.406;18.556;2023-07-24T00:35:57;16.30;99.90
20246;DHT22;10281;54.406;18.556;2023-07-24T00:38:24;16.20;99.90
20246;DHT22;10281;54.406;18.556;2023-07-24T00:40:51;16.20;99.90
20246;DHT22;10281;54.406;18.556;2023-07-24T00:43:17;16.30;99.90
20246;DHT22;10281;54.406;18.556;2023-07-24T00:45:45;16.30;99.90
20246;DHT22;10281;54.406;18.556;2023-07-24T00:48:13;16.30;99.90
20246;DHT22;10281;54.406;18.556;2023-07-24T00:50:42;16.30;99.90
20246;DHT22;10281;54.406;18.556;2023-07-24T00:53:11;16.30;99.90
20246;DHT22;10281;54.406;18.556;2023-07-24T00:55:38;16.30;99.90
20246;DHT22;10281;54.406;18.556;2023-07-24T00:58:06;16.30;99.90
20246;DHT22;10281;54.406;18.556;2023-07-24T01:00:33;16.30;99.90
20246;DHT22;10281;54.406;18.556;2023-07-24T01:02:59;16.30;99.90
20246;DHT22;10281;54.406;18.556;2023-07-24T01:05:26;16.40;99.90
20246;DHT22;10281;54.406;18.556;2023-07-24T01:07:53;16.40;99.90
20246;DHT22;10281;54.406;18.556;2023-07-24T01:10:20;16.30;99.90
20246;DHT22;10281;54.406;18.556;2023-07-24T01:15:32;16.30;99.90
20246;DHT22;10281;54.406;18.556;2023-07-24T01:18:01;16.30;99.90
20246;DHT22;10281;54.406;18.556;2023-07-24T01:20:30;16.30;99.90
20246;DHT22;10281;54.406;18.556;2023-07-24T01:23:04;16.30;99.90
20246;DHT22;10281;54.406;18.556;2023-07-24T01:25:33;16.30;99.90
20246;DHT22;10281;54.406;18.556;2023-07-24T01:28:06;16.30;99.90
20246;DHT22;10281;54.406;18.556;2023-07-24T01:30:30;16.20;99.90
20246;DHT22;10281;54.406;18.556;2023-07-24T01:32:56;16.20;99.90
20246;DHT22;10281;54.406;18.556;2023-07-24T01:35:23;16.20;99.90
20246;DHT22;10281;54.406;18.556;2023-07-24T01:37:51;16.20;99.90
20246;DHT22;10281;54.406;18.556;2023-07-24T01:40:19;16.20;99.90
20246;DHT22;10281;54.406;18.556;2023-07-24T01:42:46;16.10;99.90
20246;DHT22;10281;54.406;18.556;2023-07-24T01:45:14;16.10;99.90
20246;DHT22;10281;54.406;18.556;2023-07-24T01:47:40;16.00;99.90
20246;DHT22;10281;54.406;18.556;2023-07-24T01:50:07;16.00;99.90
20246;DHT22;10281;54.406;18.556;2023-07-24T01:52:34;16.00;99.90
20246;DHT22;10281;54.406;18.556;2023-07-24T01:55:01;16.00;99.90
20246;DHT22;10281;54.406;18.556;2023-07-24T01:57:27;16.00;99.90
20246;DHT22;10281;54.406;18.556;2023-07-24T01:59:54;15.90;99.90
20246;DHT22;10281;54.406;18.556;2023-07-24T02:02:20;15.90;99.90
20246;DHT22;10281;54.406;18.556;2023-07-24T02:04:47;15.90;99.90
20246;DHT22;10281;54.406;18.556;2023-07-24T02:07:14;15.80;99.90
20246;DHT22;10281;54.406;18.556;2023-07-24T02:09:40;15.80;99.90
20246;DHT22;10281;54.406;18.556;2023-07-24T02:12:07;15.70;99.90
20246;DHT22;10281;54.406;18.556;2023-07-24T02:14:33;15.70;99.90
20246;DHT22;10281;54.406;18.556;2023-07-24T02:17:00;15.60;99.90
20246;DHT22;10281;54.406;18.556;2023-07-24T02:19:27;15.60;99.90
20246;DHT22;10281;54.406;18.556;2023-07-24T02:21:53;15.60;99.90
20246;DHT22;10281;54.406;18.556;2023-07-24T02:24:20;15.60;99.90
20246;DHT22;10281;54.406;18.556;2023-07-24T02:26:46;15.60;99.90
20246;DHT22;10281;54.406;18.556;2023-07-24T02:29:13;15.60;99.90
20246;DHT22;10281;54.406;18.556;2023-07-24T02:31:40;15.60;99.90
20246;DHT22;10281;54.406;18.556;2023-07-24T02:34:06;15.60;99.90
20246;DHT22;10281;54.406;18.556;2023-07-24T02:36:33;15.60;99.90
20246;DHT22;10281;54.406;18.556;2023-07-24T02:38:59;15.50;99.90
20246;DHT22;10281;54.406;18.556;2023-07-24T02:41:26;15.50;99.90
20246;DHT22;10281;54.406;18.556;2023-07-24T02:43:53;15.50;99.90
20246;DHT22;10281;54.406;18.556;2023-07-24T02:46:19;15.50;99.90
20246;DHT22;10281;54.406;18.556;2023-07-24T02:48:46;15.50;99.90
20246;DHT22;10281;54.406;18.556;2023-07-24T02:51:12;15.50;99.90
20246;DHT22;10281;54.406;18.556;2023-07-24T02:53:39;15.40;99.90
20246;DHT22;10281;54.406;18.556;2023-07-24T02:56:06;15.40;99.90
20246;DHT22;10281;54.406;18.556;2023-07-24T02:58:33;15.40;99.90
20246;DHT22;10281;54.406;18.556;2023-07-24T03:01:04;15.40;99.90
20246;DHT22;10281;54.406;18.556;2023-07-24T03:03:32;15.40;99.90
20246;DHT22;10281;54.406;18.556;2023-07-24T03:05:59;15.40;99.90
20246;DHT22;10281;54.406;18.556;2023-07-24T03:08:26;15.40;99.90
20246;DHT22;10281;54.406;18.556;2023-07-24T03:10:53;15.40;99.90
20246;DHT22;10281;54.406;18.556;2023-07-24T03:13:19;15.40;99.90
20246;DHT22;10281;54.406;18.556;2023-07-24T03:15:53;15.40;99.90
20246;DHT22;10281;54.406;18.556;2023-07-24T03:18:20;15.40;99.90
20246;DHT22;10281;54.406;18.556;2023-07-24T03:20:46;15.40;99.90
20246;DHT22;10281;54.406;18.556;2023-07-24T03:23:13;15.50;99.90
20246;DHT22;10281;54.406;18.556;2023-07-24T03:25:40;15.50;99.90
20246;DHT22;10281;54.406;18.556;2023-07-24T03:28:07;15.50;99.90
20246;DHT22;10281;54.406;18.556;2023-07-24T03:30:33;15.60;99.90
20246;DHT22;10281;54.406;18.556;2023-07-24T03:33:01;15.60;99.90
20246;DHT22;10281;54.406;18.556;2023-07-24T03:35:28;15.60;99.90
20246;DHT22;10281;54.406;18.556;2023-07-24T03:37:55;15.70;99.90
20246;DHT22;10281;54.406;18.556;2023-07-24T03:40:21;15.70;99.90
20246;DHT22;10281;54.406;18.556;2023-07-24T03:42:48;15.70;99.90
20246;DHT22;10281;54.406;18.556;2023-07-24T03:45:14;15.80;99.90
20246;DHT22;10281;54.406;18.556;2023-07-24T03:47:41;15.80;99.90
20246;DHT22;10281;54.406;18.556;2023-07-24T03:50:08;15.80;99.90
20246;DHT22;10281;54.406;18.556;2023-07-24T03:52:35;15.90;99.90
20246;DHT22;10281;54.406;18.556;2023-07-24T03:55:02;15.90;99.90
20246;DHT22;10281;54.406;18.556;2023-07-24T03:57:29;15.90;99.90
20246;DHT22;10281;54.406;18.556;2023-07-24T03:59:56;16.00;99.90
20246;DHT22;10281;54.406;18.556;2023-07-24T04:02:23;16.00;99.90
20246;DHT22;10281;54.406;18.556;2023-07-24T04:04:50;16.00;99.90
20246;DHT22;10281;54.406;18.556;2023-07-24T04:07:16;16.00;99.90
20246;DHT22;10281;54.406;18.556;2023-07-24T04:09:43;16.10;99.90
20246;DHT22;10281;54.406;18.556;2023-07-24T04:12:10;16.00;99.90
20246;DHT22;10281;54.406;18.556;2023-07-24T04:14:37;16.10;99.90
20246;DHT22;10281;54.406;18.556;2023-07-24T04:17:03;16.10;99.90
20246;DHT22;10281;54.406;18.556;2023-07-24T04:19:30;16.10;99.90
20246;DHT22;10281;54.406;18.556;2023-07-24T04:21:57;16.20;99.90
20246;DHT22;10281;54.406;18.556;2023-07-24T04:24:24;16.20;99.90
20246;DHT22;10281;54.406;18.556;2023-07-24T04:26:50;16.20;99.90
20246;DHT22;10281;54.406;18.556;2023-07-24T04:29:17;16.20;99.90
20246;DHT22;10281;54.406;18.556;2023-07-24T04:31:43;16.20;99.90
20246;DHT22;10281;54.406;18.556;2023-07-24T04:34:10;16.30;99.90
20246;DHT22;10281;54.406;18.556;2023-07-24T04:36:36;16.30;99.90
20246;DHT22;10281;54.406;18.556;2023-07-24T04:39:03;16.40;99.90
20246;DHT22;10281;54.406;18.556;2023-07-24T04:41:30;16.40;99.90
20246;DHT22;10281;54.406;18.556;2023-07-24T04:43:56;16.50;99.90
20246;DHT22;10281;54.406;18.556;2023-07-24T04:46:23;16.60;99.90
20246;DHT22;10281;54.406;18.556;2023-07-24T04:48:50;16.80;99.90
20246;DHT22;10281;54.406;18.556;2023-07-24T04:51:16;16.90;99.90
20246;DHT22;10281;54.406;18.556;2023-07-24T04:53:44;17.10;99.90
20246;DHT22;10281;54.406;18.556;2023-07-24T04:56:11;17.20;99.90
20246;DHT22;10281;54.406;18.556;2023-07-24T04:58:38;17.40;99.90
20246;DHT22;10281;54.406;18.556;2023-07-24T05:01:05;17.50;99.90
20246;DHT22;10281;54.406;18.556;2023-07-24T05:03:32;17.60;99.90
20246;DHT22;10281;54.406;18.556;2023-07-24T05:05:58;17.70;99.90
20246;DHT22;10281;54.406;18.556;2023-07-24T05:08:25;17.80;99.90
20246;DHT22;10281;54.406;18.556;2023-07-24T05:10:55;17.90;99.90
20246;DHT22;10281;54.406;18.556;2023-07-24T05:13:22;18.00;99.90
20246;DHT22;10281;54.406;18.556;2023-07-24T05:15:49;18.10;99.90
20246;DHT22;10281;54.406;18.556;2023-07-24T05:18:15;18.10;99.90
20246;DHT22;10281;54.406;18.556;2023-07-24T05:20:45;18.20;99.90
20246;DHT22;10281;54.406;18.556;2023-07-24T05:23:13;18.20;99.90
20246;DHT22;10281;54.406;18.556;2023-07-24T05:25:40;18.20;99.90
20246;DHT22;10281;54.406;18.556;2023-07-24T05:28:07;18.30;99.90
20246;DHT22;10281;54.406;18.556;2023-07-24T05:30:34;18.30;99.90
20246;DHT22;10281;54.406;18.556;2023-07-24T05:33:00;18.30;99.90
20246;DHT22;10281;54.406;18.556;2023-07-24T05:35:27;18.40;99.90
20246;DHT22;10281;54.406;18.556;2023-07-24T05:37:54;18.40;99.90
20246;DHT22;10281;54.406;18.556;2023-07-24T05:40:21;18.40;99.90
20246;DHT22;10281;54.406;18.556;2023-07-24T05:42:47;18.50;99.90
20246;DHT22;10281;54.406;18.556;2023-07-24T05:45:14;18.50;99.90
20246;DHT22;10281;54.406;18.556;2023-07-24T05:47:41;18.50;99.90
20246;DHT22;10281;54.406;18.556;2023-07-24T05:50:08;18.50;99.90
20246;DHT22;10281;54.406;18.556;2023-07-24T05:52:35;18.50;99.90
20246;DHT22;10281;54.406;18.556;2023-07-24T05:55:01;18.60;99.90
20246;DHT22;10281;54.406;18.556;2023-07-24T05:57:29;18.60;99.90
20246;DHT22;10281;54.406;18.556;2023-07-24T05:59:55;18.60;99.90
20246;DHT22;10281;54.406;18.556;2023-07-24T06:02:22;18.70;99.90
20246;DHT22;10281;54.406;18.556;2023-07-24T06:04:48;18.80;99.90
20246;DHT22;10281;54.406;18.556;2023-07-24T06:07:15;18.80;99.90
20246;DHT22;10281;54.406;18.556;2023-07-24T06:09:42;18.80;99.90
20246;DHT22;10281;54.406;18.556;2023-07-24T06:12:08;18.90;99.90
20246;DHT22;10281;54.406;18.556;2023-07-24T06:14:35;19.00;99.90
20246;DHT22;10281;54.406;18.556;2023-07-24T06:17:01;19.10;99.90
20246;DHT22;10281;54.406;18.556;2023-07-24T06:19:28;19.20;99.90
20246;DHT22;10281;54.406;18.556;2023-07-24T06:21:55;19.20;99.90
20246;DHT22;10281;54.406;18.556;2023-07-24T06:24:21;19.30;99.90
20246;DHT22;10281;54.406;18.556;2023-07-24T06:26:50;19.40;99.90
20246;DHT22;10281;54.406;18.556;2023-07-24T06:29:16;19.40;99.90
20246;DHT22;10281;54.406;18.556;2023-07-24T06:31:43;19.40;99.90
20246;DHT22;10281;54.406;18.556;2023-07-24T06:34:09;19.40;99.90
20246;DHT22;10281;54.406;18.556;2023-07-24T06:36:36;19.50;99.90
20246;DHT22;10281;54.406;18.556;2023-07-24T06:39:03;19.50;99.90
20246;DHT22;10281;54.406;18.556;2023-07-24T06:41:29;19.60;99.90
20246;DHT22;10281;54.406;18.556;2023-07-24T06:43:56;19.70;99.90
20246;DHT22;10281;54.406;18.556;2023-07-24T06:46:23;19.80;99.90
20246;DHT22;10281;54.406;18.556;2023-07-24T06:48:49;19.90;99.90
20246;DHT22;10281;54.406;18.556;2023-07-24T06:51:16;20.00;99.90
20246;DHT22;10281;54.406;18.556;2023-07-24T06:53:42;20.10;99.90
20246;DHT22;10281;54.406;18.556;2023-07-24T06:56:09;20.20;99.90
20246;DHT22;10281;54.406;18.556;2023-07-24T06:58:35;20.20;99.90
20246;DHT22;10281;54.406;18.556;2023-07-24T07:01:05;20.20;99.90
20246;DHT22;10281;54.406;18.556;2023-07-24T07:03:33;20.10;99.90
20246;DHT22;10281;54.406;18.556;2023-07-24T07:06:02;20.10;99.90
20246;DHT22;10281;54.406;18.556;2023-07-24T07:08:29;20.10;99.90
20246;DHT22;10281;54.406;18.556;2023-07-24T07:10:57;20.20;99.90
20246;DHT22;10281;54.406;18.556;2023-07-24T07:13:24;20.20;99.90
20246;DHT22;10281;54.406;18.556;2023-07-24T07:15:51;20.20;99.90
20246;DHT22;10281;54.406;18.556;2023-07-24T07:18:17;20.30;99.90
20246;DHT22;10281;54.406;18.556;2023-07-24T07:20:46;20.30;99.90
20246;DHT22;10281;54.406;18.556;2023-07-24T07:23:13;20.30;99.90
20246;DHT22;10281;54.406;18.556;2023-07-24T07:25:40;20.30;99.90
20246;DHT22;10281;54.406;18.556;2023-07-24T07:28:06;20.40;99.90
20246;DHT22;10281;54.406;18.556;2023-07-24T07:30:33;20.40;99.90
20246;DHT22;10281;54.406;18.556;2023-07-24T07:32:59;20.40;99.90
20246;DHT22;10281;54.406;18.556;2023-07-24T07:35:26;20.50;99.90
20246;DHT22;10281;54.406;18.556;2023-07-24T07:37:53;20.60;99.90
20246;DHT22;10281;54.406;18.556;2023-07-24T07:40:20;20.50;99.90
20246;DHT22;10281;54.406;18.556;2023-07-24T07:42:46;20.60;99.90
20246;DHT22;10281;54.406;18.556;2023-07-24T07:45:13;20.70;99.90
20246;DHT22;10281;54.406;18.556;2023-07-24T07:47:39;20.70;99.90
20246;DHT22;10281;54.406;18.556;2023-07-24T07:50:07;20.80;99.90
20246;DHT22;10281;54.406;18.556;2023-07-24T07:52:33;20.90;99.90
20246;DHT22;10281;54.406;18.556;2023-07-24T07:55:00;20.90;99.90
20246;DHT22;10281;54.406;18.556;2023-07-24T07:57:26;21.00;99.90
20246;DHT22;10281;54.406;18.556;2023-07-24T07:59:53;21.00;99.90
20246;DHT22;10281;54.406;18.556;2023-07-24T08:02:20;21.00;99.90
20246;DHT22;10281;54.406;18.556;2023-07-24T08:04:46;21.00;99.90
20246;DHT22;10281;54.406;18.556;2023-07-24T08:07:13;21.00;99.90
20246;DHT22;10281;54.406;18.556;2023-07-24T08:09:39;21.00;99.90
20246;DHT22;10281;54.406;18.556;2023-07-24T08:12:07;21.10;99.90
20246;DHT22;10281;54.406;18.556;2023-07-24T08:14:33;21.10;99.90
20246;DHT22;10281;54.406;18.556;2023-07-24T08:17:00;21.20;99.90
20246;DHT22;10281;54.406;18.556;2023-07-24T08:19:28;21.30;99.90
20246;DHT22;10281;54.406;18.556;2023-07-24T08:21:55;21.40;99.90
20246;DHT22;10281;54.406;18.556;2023-07-24T08:24:22;21.50;99.90
20246;DHT22;10281;54.406;18.556;2023-07-24T08:26:49;21.60;99.90
20246;DHT22;10281;54.406;18.556;2023-07-24T08:29:15;21.60;99.90
20246;DHT22;10281;54.406;18.556;2023-07-24T08:31:42;21.70;99.90
20246;DHT22;10281;54.406;18.556;2023-07-24T08:34:09;21.80;99.90
20246;DHT22;10281;54.406;18.556;2023-07-24T08:36:35;21.90;99.90
20246;DHT22;10281;54.406;18.556;2023-07-24T08:39:03;22.10;99.90
20246;DHT22;10281;54.406;18.556;2023-07-24T08:41:30;22.20;99.90
20246;DHT22;10281;54.406;18.556;2023-07-24T08:43:58;22.30;99.90
20246;DHT22;10281;54.406;18.556;2023-07-24T08:46:27;22.40;99.90
20246;DHT22;10281;54.406;18.556;2023-07-24T08:48:54;22.30;99.90
20246;DHT22;10281;54.406;18.556;2023-07-24T08:51:22;22.30;99.90
20246;DHT22;10281;54.406;18.556;2023-07-24T08:53:50;22.30;99.90
20246;DHT22;10281;54.406;18.556;2023-07-24T08:56:17;22.30;99.90
20246;DHT22;10281;54.406;18.556;2023-07-24T08:58:44;22.30;99.90
20246;DHT22;10281;54.406;18.556;2023-07-24T09:01:10;22.30;99.90
20246;DHT22;10281;54.406;18.556;2023-07-24T09:03:37;22.20;99.90
20246;DHT22;10281;54.406;18.556;2023-07-24T09:06:04;22.10;99.90
20246;DHT22;10281;54.406;18.556;2023-07-24T09:08:37;22.10;99.90
20246;DHT22;10281;54.406;18.556;2023-07-24T09:11:05;22.20;99.90
20246;DHT22;10281;54.406;18.556;2023-07-24T09:13:32;22.20;99.90
20246;DHT22;10281;54.406;18.556;2023-07-24T09:15:59;22.30;99.90
20246;DHT22;10281;54.406;18.556;2023-07-24T09:18:27;22.30;99.90
20246;DHT22;10281;54.406;18.556;2023-07-24T09:20:53;22.40;99.90
20246;DHT22;10281;54.406;18.556;2023-07-24T09:23:26;22.40;99.90
20246;DHT22;10281;54.406;18.556;2023-07-24T09:25:53;22.40;99.90
20246;DHT22;10281;54.406;18.556;2023-07-24T09:28:20;22.40;99.90
20246;DHT22;10281;54.406;18.556;2023-07-24T09:30:53;22.40;99.90
20246;DHT22;10281;54.406;18.556;2023-07-24T09:33:23;22.50;99.90
20246;DHT22;10281;54.406;18.556;2023-07-24T09:35:57;22.60;99.90
20246;DHT22;10281;54.406;18.556;2023-07-24T09:38:25;22.60;99.90
20246;DHT22;10281;54.406;18.556;2023-07-24T09:40:52;22.60;99.90
20246;DHT22;10281;54.406;18.556;2023-07-24T09:43:21;22.70;99.90
20246;DHT22;10281;54.406;18.556;2023-07-24T09:45:49;22.80;99.90
20246;DHT22;10281;54.406;18.556;2023-07-24T09:48:17;22.90;99.90
20246;DHT22;10281;54.406;18.556;2023-07-24T09:50:46;22.90;99.90
20246;DHT22;10281;54.406;18.556;2023-07-24T09:56:01;23.00;99.90
20246;DHT22;10281;54.406;18.556;2023-07-24T09:58:28;23.10;99.90
20246;DHT22;10281;54.406;18.556;2023-07-24T10:00:56;23.10;99.90
20246;DHT22;10281;54.406;18.556;2023-07-24T10:03:24;23.20;99.90
20246;DHT22;10281;54.406;18.556;2023-07-24T10:05:52;23.20;99.90
20246;DHT22;10281;54.406;18.556;2023-07-24T10:08:20;23.30;99.90
20246;DHT22;10281;54.406;18.556;2023-07-24T10:10:47;23.50;99.90
20246;DHT22;10281;54.406;18.556;2023-07-24T10:13:17;23.60;99.90
20246;DHT22;10281;54.406;18.556;2023-07-24T10:15:46;23.60;99.90
20246;DHT22;10281;54.406;18.556;2023-07-24T10:18:15;23.70;99.90
20246;DHT22;10281;54.406;18.556;2023-07-24T10:20:44;23.80;99.90
20246;DHT22;10281;54.406;18.556;2023-07-24T10:23:16;23.90;99.90
20246;DHT22;10281;54.406;18.556;2023-07-24T10:25:44;24.00;99.90
20246;DHT22;10281;54.406;18.556;2023-07-24T10:28:12;24.00;99.90
20246;DHT22;10281;54.406;18.556;2023-07-24T10:30:39;24.00;99.90
20246;DHT22;10281;54.406;18.556;2023-07-24T10:33:11;24.10;99.90
20246;DHT22;10281;54.406;18.556;2023-07-24T10:35:42;24.10;99.90
20246;DHT22;10281;54.406;18.556;2023-07-24T10:38:10;24.10;99.90
20246;DHT22;10281;54.406;18.556;2023-07-24T10:40:38;24.10;99.90
20246;DHT22;10281;54.406;18.556;2023-07-24T10:43:07;24.10;99.90
20246;DHT22;10281;54.406;18.556;2023-07-24T10:45:41;24.20;99.90
20246;DHT22;10281;54.406;18.556;2023-07-24T10:48:09;24.20;99.90
20246;DHT22;10281;54.406;18.556;2023-07-24T10:50:39;24.20;99.90
20246;DHT22;10281;54.406;18.556;2023-07-24T10:53:07;24.20;99.90
20246;DHT22;10281;54.406;18.556;2023-07-24T10:55:34;24.20;99.90
20246;DHT22;10281;54.406;18.556;2023-07-24T10:58:00;24.20;99.90
20246;DHT22;10281;54.406;18.556;2023-07-24T11:00:27;24.20;99.90
20246;DHT22;10281;54.406;18.556;2023-07-24T11:02:55;24.40;99.90
20246;DHT22;10281;54.406;18.556;2023-07-24T11:05:22;24.50;99.90
20246;DHT22;10281;54.406;18.556;2023-07-24T11:07:49;24.50;99.90
20246;DHT22;10281;54.406;18.556;2023-07-24T11:10:18;24.60;99.90
20246;DHT22;10281;54.406;18.556;2023-07-24T11:12:45;24.60;99.90
20246;DHT22;10281;54.406;18.556;2023-07-24T11:15:13;24.60;99.90
20246;DHT22;10281;54.406;18.556;2023-07-24T11:17:41;24.60;99.90
20246;DHT22;10281;54.406;18.556;2023-07-24T11:20:13;24.60;99.90
20246;DHT22;10281;54.406;18.556;2023-07-24T11:22:42;24.60;99.90
20246;DHT22;10281;54.406;18.556;2023-07-24T11:25:10;24.60;99.90
20246;DHT22;10281;54.406;18.556;2023-07-24T11:27:40;24.60;99.90
20246;DHT22;10281;54.406;18.556;2023-07-24T11:30:09;24.60;99.90
20246;DHT22;10281;54.406;18.556;2023-07-24T11:32:37;24.50;99.90
20246;DHT22;10281;54.406;18.556;2023-07-24T11:35:05;24.50;99.90
20246;DHT22;10281;54.406;18.556;2023-07-24T11:37:31;24.50;99.90
20246;DHT22;10281;54.406;18.556;2023-07-24T11:39:59;24.50;99.90
20246;DHT22;10281;54.406;18.556;2023-07-24T11:42:44;24.50;99.90
20246;DHT22;10281;54.406;18.556;2023-07-24T11:45:11;24.50;99.90
20246;DHT22;10281;54.406;18.556;2023-07-24T11:47:45;24.40;99.90
20246;DHT22;10281;54.406;18.556;2023-07-24T11:50:13;24.40;99.90
20246;DHT22;10281;54.406;18.556;2023-07-24T11:52:42;24.30;99.90
20246;DHT22;10281;54.406;18.556;2023-07-24T11:55:13;24.40;99.90
20246;DHT22;10281;54.406;18.556;2023-07-24T11:57:39;24.50;99.90
20246;DHT22;10281;54.406;18.556;2023-07-24T12:00:19;24.50;99.90
20246;DHT22;10281;54.406;18.556;2023-07-24T12:02:46;24.60;99.90
20246;DHT22;10281;54.406;18.556;2023-07-24T12:05:13;24.60;99.90
20246;DHT22;10281;54.406;18.556;2023-07-24T12:07:42;24.70;99.90
20246;DHT22;10281;54.406;18.556;2023-07-24T12:10:10;24.70;99.90
20246;DHT22;10281;54.406;18.556;2023-07-24T12:12:46;24.80;99.90
20246;DHT22;10281;54.406;18.556;2023-07-24T12:15:14;25.00;99.90
20246;DHT22;10281;54.406;18.556;2023-07-24T12:17:42;25.10;99.90
20246;DHT22;10281;54.406;18.556;2023-07-24T12:20:09;25.20;99.90
20246;DHT22;10281;54.406;18.556;2023-07-24T12:22:37;25.20;99.90
20246;DHT22;10281;54.406;18.556;2023-07-24T12:25:05;25.20;99.90
20246;DHT22;10281;54.406;18.556;2023-07-24T12:27:32;25.20;99.90
20246;DHT22;10281;54.406;18.556;2023-07-24T12:30:00;25.20;99.90
20246;DHT22;10281;54.406;18.556;2023-07-24T12:32:26;25.20;99.90
20246;DHT22;10281;54.406;18.556;2023-07-24T12:34:53;25.20;99.90
20246;DHT22;10281;54.406;18.556;2023-07-24T12:37:20;25.20;99.90
20246;DHT22;10281;54.406;18.556;2023-07-24T12:39:47;25.20;99.90
20246;DHT22;10281;54.406;18.556;2023-07-24T12:42:15;25.20;99.90
20246;DHT22;10281;54.406;18.556;2023-07-24T12:44:42;25.20;99.90
20246;DHT22;10281;54.406;18.556;2023-07-24T12:47:10;25.30;99.90
20246;DHT22;10281;54.406;18.556;2023-07-24T12:49:37;25.40;99.90
20246;DHT22;10281;54.406;18.556;2023-07-24T12:52:05;25.40;99.90
20246;DHT22;10281;54.406;18.556;2023-07-24T12:54:32;25.40;99.90
20246;DHT22;10281;54.406;18.556;2023-07-24T12:56:59;25.40;99.90
20246;DHT22;10281;54.406;18.556;2023-07-24T12:59:25;25.40;99.90
20246;DHT22;10281;54.406;18.556;2023-07-24T13:01:52;25.40;99.90
20246;DHT22;10281;54.406;18.556;2023-07-24T13:04:19;25.40;99.90
20246;DHT22;10281;54.406;18.556;2023-07-24T13:06:46;25.50;99.90
20246;DHT22;10281;54.406;18.556;2023-07-24T13:09:13;25.60;99.90
20246;DHT22;10281;54.406;18.556;2023-07-24T13:11:39;25.60;99.90
20246;DHT22;10281;54.406;18.556;2023-07-24T13:14:06;25.60;99.90
20246;DHT22;10281;54.406;18.556;2023-07-24T13:16:33;25.60;99.90
20246;DHT22;10281;54.406;18.556;2023-07-24T13:18:59;25.70;99.90
20246;DHT22;10281;54.406;18.556;2023-07-24T13:21:26;25.70;99.90
20246;DHT22;10281;54.406;18.556;2023-07-24T13:23:53;25.80;99.90
20246;DHT22;10281;54.406;18.556;2023-07-24T13:26:19;25.80;99.90
20246;DHT22;10281;54.406;18.556;2023-07-24T13:28:46;25.80;99.90
20246;DHT22;10281;54.406;18.556;2023-07-24T13:31:14;25.80;99.90
20246;DHT22;10281;54.406;18.556;2023-07-24T13:33:41;25.70;99.90
20246;DHT22;10281;54.406;18.556;2023-07-24T13:36:08;25.70;99.90
20246;DHT22;10281;54.406;18.556;2023-07-24T13:38:35;25.70;99.90
20246;DHT22;10281;54.406;18.556;2023-07-24T13:41:02;25.70;99.90
20246;DHT22;10281;54.406;18.556;2023-07-24T13:43:31;25.60;99.90
20246;DHT22;10281;54.406;18.556;2023-07-24T13:45:57;25.70;99.90
20246;DHT22;10281;54.406;18.556;2023-07-24T13:48:26;25.70;99.90
20246;DHT22;10281;54.406;18.556;2023-07-24T13:50:53;25.80;99.90
20246;DHT22;10281;54.406;18.556;2023-07-24T13:53:21;25.80;99.90
20246;DHT22;10281;54.406;18.556;2023-07-24T13:55:48;26.00;99.90
20246;DHT22;10281;54.406;18.556;2023-07-24T13:58:15;26.00;99.90
20246;DHT22;10281;54.406;18.556;2023-07-24T14:00:41;26.10;99.90
20246;DHT22;10281;54.406;18.556;2023-07-24T14:03:08;26.10;99.90
20246;DHT22;10281;54.406;18.556;2023-07-24T14:05:35;26.10;99.90
20246;DHT22;10281;54.406;18.556;2023-07-24T14:08:04;26.10;99.90
20246;DHT22;10281;54.406;18.556;2023-07-24T14:10:31;26.10;99.90
20246;DHT22;10281;54.406;18.556;2023-07-24T14:12:58;26.00;99.90
20246;DHT22;10281;54.406;18.556;2023-07-24T14:15:24;25.90;99.90
20246;DHT22;10281;54.406;18.556;2023-07-24T14:17:51;25.90;99.90
20246;DHT22;10281;54.406;18.556;2023-07-24T14:20:17;26.00;99.90
20246;DHT22;10281;54.406;18.556;2023-07-24T14:22:44;26.00;99.90
20246;DHT22;10281;54.406;18.556;2023-07-24T14:25:11;26.00;99.90
20246;DHT22;10281;54.406;18.556;2023-07-24T14:27:37;26.00;99.90
20246;DHT22;10281;54.406;18.556;2023-07-24T14:30:05;26.00;99.90
20246;DHT22;10281;54.406;18.556;2023-07-24T14:32:32;26.00;99.90
20246;DHT22;10281;54.406;18.556;2023-07-24T14:34:59;26.00;99.90
20246;DHT22;10281;54.406;18.556;2023-07-24T14:37:25;26.00;99.90
20246;DHT22;10281;54.406;18.556;2023-07-24T14:39:52;25.90;99.90
20246;DHT22;10281;54.406;18.556;2023-07-24T14:42:18;26.00;99.90
20246;DHT22;10281;54.406;18.556;2023-07-24T14:44:45;25.90;99.90
20246;DHT22;10281;54.406;18.556;2023-07-24T14:47:12;25.80;99.90
20246;DHT22;10281;54.406;18.556;2023-07-24T14:49:39;25.70;99.90
20246;DHT22;10281;54.406;18.556;2023-07-24T14:52:06;25.60;99.90
20246;DHT22;10281;54.406;18.556;2023-07-24T14:54:33;25.60;99.90
20246;DHT22;10281;54.406;18.556;2023-07-24T14:57:00;25.50;99.90
20246;DHT22;10281;54.406;18.556;2023-07-24T14:59:28;25.50;99.90
20246;DHT22;10281;54.406;18.556;2023-07-24T15:01:55;25.50;99.90
20246;DHT22;10281;54.406;18.556;2023-07-24T15:04:21;25.50;99.90
20246;DHT22;10281;54.406;18.556;2023-07-24T15:06:48;25.50;99.90
20246;DHT22;10281;54.406;18.556;2023-07-24T15:09:15;25.10;99.90
20246;DHT22;10281;54.406;18.556;2023-07-24T15:11:41;24.80;99.90
20246;DHT22;10281;54.406;18.556;2023-07-24T15:14:08;24.30;99.90
20246;DHT22;10281;54.406;18.556;2023-07-24T15:16:34;24.30;99.90
20246;DHT22;10281;54.406;18.556;2023-07-24T15:19:01;24.20;99.90
20246;DHT22;10281;54.406;18.556;2023-07-24T15:21:27;24.10;99.90